Time;durP1;ratioP1;P1;durP2;ratioP2;P2;SDS_P1;SDS_P2;PMS_P1;PMS_P2;Temp;Humidity;BMP_temperature;BMP_pressure;BME280_temperature;BME280_humidity;BME280_pressure;Samples;Min_cycle;Max_cycle;Signal;HPM_P1;HPM_P2
2023/09/20 00:01:16;;;;;;;;;;;;;;;;;;6283931;22;19926;-91
2023/09/20 00:03:43;;;;;;;;;;;;;;;;;;6283961;22;20360;-91
2023/09/20 00:06:10;;;;;;;;;;;;;;;;;;6285280;22;20354;-91
2023/09/20 00:08:36;;;;;;;;;;;;;;;;;;6283111;22;20241;-92
2023/09/20 00:11:02;;;;;;;;;;;;;;;;;;6258968;22;19949;-92
2023/09/20 00:13:28;;;;;;;;;;;;;;;;;;6281209;22;20335;-92
2023/09/20 00:15:55;;;;;;;;;;;;;;;;;;6260765;22;19926;-92
2023/09/20 00:18:23;;;;;;;;;;;;;;;;;;6281990;22;19990;-91
2023/09/20 00:20:49;;;;;;;;;;;;;;;;;;6257147;22;19925;-92
2023/09/20 00:23:21;;;;;;;;;;;;;;;;;;6259015;22;19923;-92
2023/09/20 00:25:49;;;;;;;;;;;;;;;;;;6258223;22;20400;-92
2023/09/20 00:28:17;;;;;;;;;;;;;;;;;;6259706;22;19933;-91
2023/09/20 00:30:44;;;;;;;;;;;;;;;;;;6254779;22;20000;-92
2023/09/20 00:33:10;;;;;;;;;;;;;;;;;;6258537;22;19947;-91
2023/09/20 00:35:36;;;;;;;;;;;;;;;;;;6256708;22;19961;-91
2023/09/20 00:40:52;;;;;;;;;;;;;;;;;;6281823;22;20256;-92
2023/09/20 00:43:18;;;;;;;;;;;;;;;;;;6272851;22;20002;-92
2023/09/20 00:45:44;;;;;;;;;;;;;;;;;;6253109;22;19990;-91
2023/09/20 00:48:12;;;;;;;;;;;;;;;;;;6259983;22;19918;-92
2023/09/20 00:50:42;;;;;;;;;;;;;;;;;;6257542;22;19923;-92
2023/09/20 00:53:11;;;;;;;;;;;;;;;;;;6283149;22;19926;-91
2023/09/20 00:55:42;;;;;;;;;;;;;;;;;;6280596;22;19922;-91
2023/09/20 00:58:08;;;;;;;;;;;;;;;;;;6285451;22;20290;-91
2023/09/20 01:00:37;;;;;;;;;;;;;;;;;;6286432;22;20308;-92
2023/09/20 01:03:03;;;;;;;;;;;;;;;;;;6260783;22;19922;-91
2023/09/20 01:05:34;;;;;;;;;;;;;;;;;;6255965;22;20338;-91
2023/09/20 01:08:01;;;;;;;;;;;;;;;;;;6287281;22;20380;-92
2023/09/20 01:10:27;;;;;;;;;;;;;;;;;;6258634;22;19926;-92
2023/09/20 01:12:56;;;;;;;;;;;;;;;;;;6258566;22;19922;-92
2023/09/20 01:15:22;;;;;;;;;;;;;;;;;;6254246;22;19980;-92
2023/09/20 01:17:48;;;;;;;;;;;;;;;;;;6259398;22;20324;-91
2023/09/20 01:20:14;;;;;;;;;;;;;;;;;;6258946;22;20243;-91
2023/09/20 01:22:40;;;;;;;;;;;;;;;;;;6260239;22;19918;-91
2023/09/20 01:25:07;;;;;;;;;;;;;;;;;;6261086;22;20247;-91
2023/09/20 01:27:35;;;;;;;;;;;;;;;;;;6257561;22;19923;-92
2023/09/20 01:30:02;;;;;;;;;;;;;;;;;;6260887;22;19918;-92
2023/09/20 01:32:29;;;;;;;;;;;;;;;;;;6285997;22;19926;-90
2023/09/20 01:34:56;;;;;;;;;;;;;;;;;;6260712;22;20285;-91
2023/09/20 01:37:22;;;;;;;;;;;;;;;;;;6257781;22;20336;-92
2023/09/20 01:39:48;;;;;;;;;;;;;;;;;;6260152;22;20354;-92
2023/09/20 01:42:17;;;;;;;;;;;;;;;;;;6287869;22;19919;-91
2023/09/20 01:44:42;;;;;;;;;;;;;;;;;;6283742;22;20446;-91
2023/09/20 01:47:08;;;;;;;;;;;;;;;;;;6288505;22;19915;-90
2023/09/20 01:49:34;;;;;;;;;;;;;;;;;;6285237;22;19919;-91
2023/09/20 01:52:01;;;;;;;;;;;;;;;;;;6263423;22;19993;-91
2023/09/20 01:54:28;;;;;;;;;;;;;;;;;;6256711;22;19972;-91
2023/09/20 01:56:55;;;;;;;;;;;;;;;;;;6258987;22;19925;-92
2023/09/20 01:59:21;;;;;;;;;;;;;;;;;;6255879;22;19919;-90
2023/09/20 02:01:48;;;;;;;;;;;;;;;;;;6233005;22;20353;-91
2023/09/20 02:04:15;;;;;;;;;;;;;;;;;;6232133;22;20328;-92
2023/09/20 02:06:40;;;;;;;;;;;;;;;;;;6229473;22;19919;-91
2023/09/20 02:09:06;;;;;;;;;;;;;;;;;;6257691;22;19926;-92
2023/09/20 02:11:32;;;;;;;;;;;;;;;;;;6254311;22;19989;-91
2023/09/20 02:13:58;;;;;;;;;;;;;;;;;;6233442;22;19918;-91
2023/09/20 02:16:24;;;;;;;;;;;;;;;;;;6256339;22;20018;-92
2023/09/20 02:18:52;;;;;;;;;;;;;;;;;;6233153;22;20359;-92
2023/09/20 02:21:18;;;;;;;;;;;;;;;;;;6258092;22;19926;-91
2023/09/20 02:23:44;;;;;;;;;;;;;;;;;;6236401;22;19923;-91
2023/09/20 02:26:12;;;;;;;;;;;;;;;;;;6259273;22;19926;-91
2023/09/20 02:28:38;;;;;;;;;;;;;;;;;;6234248;22;19922;-92
2023/09/20 02:31:04;;;;;;;;;;;;;;;;;;6234507;22;19919;-92
2023/09/20 02:33:30;;;;;;;;;;;;;;;;;;6230918;22;19918;-91
2023/09/20 02:35:57;;;;;;;;;;;;;;;;;;6234621;22;20241;-91
2023/09/20 02:38:22;;;;;;;;;;;;;;;;;;6257932;22;20641;-91
2023/09/20 02:40:50;;;;;;;;;;;;;;;;;;6258925;22;19993;-91
2023/09/20 02:43:16;;;;;;;;;;;;;;;;;;6261327;22;19968;-91
2023/09/20 02:45:43;;;;;;;;;;;;;;;;;;6232571;22;19919;-91
2023/09/20 02:48:09;;;;;;;;;;;;;;;;;;6234823;22;19965;-92
2023/09/20 02:50:35;;;;;;;;;;;;;;;;;;6266979;22;19985;-91
2023/09/20 02:53:01;;;;;;;;;;;;;;;;;;6260273;22;19918;-90
2023/09/20 02:55:28;;;;;;;;;;;;;;;;;;6257721;22;19919;-90
2023/09/20 02:57:54;;;;;;;;;;;;;;;;;;6262015;22;19930;-91
2023/09/20 03:00:21;;;;;;;;;;;;;;;;;;6284860;22;20278;-91
2023/09/20 03:02:47;;;;;;;;;;;;;;;;;;6289997;22;19919;-91
2023/09/20 03:05:13;;;;;;;;;;;;;;;;;;6257699;22;19927;-92
2023/09/20 03:07:41;;;;;;;;;;;;;;;;;;6254294;22;20383;-92
2023/09/20 03:10:12;;;;;;;;;;;;;;;;;;6253137;22;19925;-91
2023/09/20 03:12:38;;;;;;;;;;;;;;;;;;6277727;22;19954;-91
2023/09/20 03:15:05;;;;;;;;;;;;;;;;;;6279633;22;19919;-92
2023/09/20 03:17:31;;;;;;;;;;;;;;;;;;6253414;22;20011;-91
2023/09/20 03:19:57;;;;;;;;;;;;;;;;;;6252244;22;20543;-92
2023/09/20 03:22:23;;;;;;;;;;;;;;;;;;6279365;22;19968;-91
2023/09/20 03:24:51;;;;;;;;;;;;;;;;;;6281663;22;19927;-91
2023/09/20 03:27:17;;;;;;;;;;;;;;;;;;6258591;22;19954;-92
2023/09/20 03:29:43;;;;;;;;;;;;;;;;;;6257466;22;20441;-91
2023/09/20 03:32:09;;;;;;;;;;;;;;;;;;6256359;22;20354;-91
2023/09/20 03:34:35;;;;;;;;;;;;;;;;;;6252031;22;20673;-92
2023/09/20 03:37:01;;;;;;;;;;;;;;;;;;6257740;22;19918;-91
2023/09/20 03:39:27;;;;;;;;;;;;;;;;;;6280531;22;20330;-90
2023/09/20 03:41:53;;;;;;;;;;;;;;;;;;6283662;22;20266;-91
2023/09/20 03:44:22;;;;;;;;;;;;;;;;;;6279861;22;20287;-91
2023/09/20 03:46:50;;;;;;;;;;;;;;;;;;6280321;22;19925;-91
2023/09/20 03:49:16;;;;;;;;;;;;;;;;;;6281197;22;20487;-91
2023/09/20 03:51:42;;;;;;;;;;;;;;;;;;6228463;22;20084;-91
2023/09/20 03:54:08;;;;;;;;;;;;;;;;;;6231984;22;19919;-91
2023/09/20 03:56:35;;;;;;;;;;;;;;;;;;6227819;22;20236;-91
2023/09/20 03:59:01;;;;;;;;;;;;;;;;;;6232573;22;19993;-90
2023/09/20 04:01:28;;;;;;;;;;;;;;;;;;6223450;22;19925;-91
2023/09/20 04:03:54;;;;;;;;;;;;;;;;;;6254664;22;19962;-91
2023/09/20 04:06:20;;;;;;;;;;;;;;;;;;6253101;22;19946;-91
2023/09/20 04:08:46;;;;;;;;;;;;;;;;;;6254181;22;20327;-92
2023/09/20 04:11:12;;;;;;;;;;;;;;;;;;6284243;22;19946;-90
2023/09/20 04:13:38;;;;;;;;;;;;;;;;;;6227771;22;19985;-91
2023/09/20 04:16:04;;;;;;;;;;;;;;;;;;6254850;22;20373;-92
2023/09/20 04:18:30;;;;;;;;;;;;;;;;;;6250210;22;19937;-91
2023/09/20 04:20:57;;;;;;;;;;;;;;;;;;6256124;22;20311;-92
2023/09/20 04:23:23;;;;;;;;;;;;;;;;;;6280193;22;20048;-91
2023/09/20 04:25:51;;;;;;;;;;;;;;;;;;6231347;22;19990;-91
2023/09/20 04:28:17;;;;;;;;;;;;;;;;;;6259936;22;20225;-91
2023/09/20 04:30:43;;;;;;;;;;;;;;;;;;6255665;22;19949;-91
2023/09/20 04:33:10;;;;;;;;;;;;;;;;;;6232878;22;19915;-91
2023/09/20 04:35:37;;;;;;;;;;;;;;;;;;6253244;22;19988;-92
2023/09/20 04:38:02;;;;;;;;;;;;;;;;;;6259141;22;19955;-91
2023/09/20 04:40:28;;;;;;;;;;;;;;;;;;6225938;22;19954;-91
2023/09/20 04:42:54;;;;;;;;;;;;;;;;;;6256688;22;19993;-91
2023/09/20 04:45:22;;;;;;;;;;;;;;;;;;6233843;22;20401;-90
2023/09/20 04:47:49;;;;;;;;;;;;;;;;;;6235130;22;20318;-91
2023/09/20 04:50:16;;;;;;;;;;;;;;;;;;6241352;22;19923;-91
2023/09/20 04:52:43;;;;;;;;;;;;;;;;;;6255511;22;20244;-91
2023/09/20 04:55:10;;;;;;;;;;;;;;;;;;6255665;22;19996;-91
2023/09/20 04:57:36;;;;;;;;;;;;;;;;;;6277605;22;20242;-90
2023/09/20 05:00:08;;;;;;;;;;;;;;;;;;6256748;22;19919;-91
2023/09/20 05:02:34;;;;;;;;;;;;;;;;;;6254699;22;20429;-91
2023/09/20 05:05:00;;;;;;;;;;;;;;;;;;6281856;22;19962;-91
2023/09/20 05:07:27;;;;;;;;;;;;;;;;;;6280797;22;19915;-91
2023/09/20 05:09:53;;;;;;;;;;;;;;;;;;6284616;22;19929;-91
2023/09/20 05:12:18;;;;;;;;;;;;;;;;;;6283149;22;19919;-91
2023/09/20 05:14:45;;;;;;;;;;;;;;;;;;6247054;22;20025;-91
2023/09/20 05:17:11;;;;;;;;;;;;;;;;;;6255632;22;19929;-93
2023/09/20 05:19:38;;;;;;;;;;;;;;;;;;6255297;22;19919;-92
2023/09/20 05:22:07;;;;;;;;;;;;;;;;;;6262352;22;19958;-91
2023/09/20 05:24:33;;;;;;;;;;;;;;;;;;6279980;22;19973;-91
2023/09/20 05:26:59;;;;;;;;;;;;;;;;;;6280272;22;19954;-92
2023/09/20 05:29:25;;;;;;;;;;;;;;;;;;6250764;22;19919;-92
2023/09/20 05:31:52;;;;;;;;;;;;;;;;;;6281223;22;19981;-92
2023/09/20 05:34:17;;;;;;;;;;;;;;;;;;6277349;22;19918;-91
2023/09/20 05:36:45;;;;;;;;;;;;;;;;;;6281334;22;19923;-91
2023/09/20 05:39:12;;;;;;;;;;;;;;;;;;6285495;22;19968;-92
2023/09/20 05:41:40;;;;;;;;;;;;;;;;;;6288409;22;20328;-92
2023/09/20 05:44:19;;;;;;;;;;;;;;;;;;6295660;22;20302;-92
2023/09/20 05:46:48;;;;;;;;;;;;;;;;;;6264045;22;20320;-92
2023/09/20 05:49:16;;;;;;;;;;;;;;;;;;6260943;22;19919;-93
2023/09/20 05:51:44;;;;;;;;;;;;;;;;;;6261616;22;20327;-93
2023/09/20 05:54:10;;;;;;;;;;;;;;;;;;6262049;22;19919;-92
2023/09/20 05:56:36;;;;;;;;;;;;;;;;;;6234402;22;19960;-93
2023/09/20 05:59:04;;;;;;;;;;;;;;;;;;6237479;22;19919;-92
2023/09/20 06:01:30;;;;;;;;;;;;;;;;;;6263488;22;20243;-92
2023/09/20 06:03:58;;;;;;;;;;;;;;;;;;6239130;22;19988;-92
2023/09/20 06:06:25;;;;;;;;;;;;;;;;;;6262172;22;19945;-92
2023/09/20 06:08:51;;;;;;;;;;;;;;;;;;6263948;22;19919;-92
2023/09/20 06:11:19;;;;;;;;;;;;;;;;;;6264039;22;19919;-93
2023/09/20 06:13:44;;;;;;;;;;;;;;;;;;6260747;22;19918;-92
2023/09/20 06:16:10;;;;;;;;;;;;;;;;;;6237268;22;20413;-93
2023/09/20 06:18:36;;;;;;;;;;;;;;;;;;6259636;22;19919;-92
2023/09/20 06:21:03;;;;;;;;;;;;;;;;;;6262099;22;20021;-92
2023/09/20 06:23:29;;;;;;;;;;;;;;;;;;6234448;22;19923;-92
2023/09/20 06:25:55;;;;;;;;;;;;;;;;;;6264606;22;19918;-92
2023/09/20 06:28:24;;;;;;;;;;;;;;;;;;6265488;22;19919;-94
2023/09/20 06:30:50;;;;;;;;;;;;;;;;;;6238636;22;19961;-93
2023/09/20 06:33:16;;;;;;;;;;;;;;;;;;6235740;22;19947;-93
2023/09/20 06:35:43;;;;;;;;;;;;;;;;;;6258849;22;19919;-93
2023/09/20 06:38:09;;;;;;;;;;;;;;;;;;6240032;22;20712;-93
2023/09/20 06:40:39;;;;;;;;;;;;;;;;;;6261181;22;19919;-93
2023/09/20 06:43:07;;;;;;;;;;;;;;;;;;6237500;22;19941;-94
2023/09/20 06:45:33;;;;;;;;;;;;;;;;;;6237338;22;19998;-93
2023/09/20 06:48:00;;;;;;;;;;;;;;;;;;6263274;22;20433;-92
2023/09/20 06:50:26;;;;;;;;;;;;;;;;;;6270530;22;19923;-93
2023/09/20 06:52:54;;;;;;;;;;;;;;;;;;6291655;22;19919;-92
2023/09/20 06:55:20;;;;;;;;;;;;;;;;;;6288990;22;19919;-93
2023/09/20 06:57:47;;;;;;;;;;;;;;;;;;6290373;22;19918;-93
2023/09/20 07:00:25;;;;;;;;;;;;;;;;;;6263904;22;20338;-93
2023/09/20 07:02:51;;;;;;;;;;;;;;;;;;6264172;22;20354;-93
2023/09/20 07:05:17;;;;;;;;;;;;;;;;;;6288884;22;20399;-92
2023/09/20 07:07:43;;;;;;;;;;;;;;;;;;6285204;22;19919;-93
2023/09/20 07:10:09;;;;;;;;;;;;;;;;;;6289539;22;19926;-93
2023/09/20 07:12:38;;;;;;;;;;;;;;;;;;6288577;22;20372;-93
2023/09/20 07:15:06;;;;;;;;;;;;;;;;;;6264171;22;20323;-93
2023/09/20 07:17:32;;;;;;;;;;;;;;;;;;6262266;22;19919;-92
2023/09/20 07:19:58;;;;;;;;;;;;;;;;;;6286108;22;19973;-93
2023/09/20 07:22:25;;;;;;;;;;;;;;;;;;6288545;22;20283;-92
2023/09/20 07:24:54;;;;;;;;;;;;;;;;;;6290106;22;19919;-93
2023/09/20 07:27:20;;;;;;;;;;;;;;;;;;6288686;22;19985;-93
2023/09/20 07:29:46;;;;;;;;;;;;;;;;;;6263868;22;20481;-93
2023/09/20 07:32:15;;;;;;;;;;;;;;;;;;6289204;22;19918;-94
2023/09/20 07:34:41;;;;;;;;;;;;;;;;;;6287473;22;19929;-93
2023/09/20 07:37:07;;;;;;;;;;;;;;;;;;6286918;22;19919;-90
2023/09/20 07:39:33;;;;;;;;;;;;;;;;;;6285178;22;19918;-93
2023/09/20 07:41:59;;;;;;;;;;;;;;;;;;6289830;22;19918;-92
2023/09/20 07:44:30;;;;;;;;;;;;;;;;;;6287092;22;19923;-93
2023/09/20 07:46:57;;;;;;;;;;;;;;;;;;6291214;22;20001;-93
2023/09/20 07:49:23;;;;;;;;;;;;;;;;;;6287892;22;20311;-93
2023/09/20 07:51:49;;;;;;;;;;;;;;;;;;6262222;22;19919;-93
2023/09/20 07:54:17;;;;;;;;;;;;;;;;;;6263855;22;19919;-93
2023/09/20 07:56:43;;;;;;;;;;;;;;;;;;6262839;22;19938;-92
2023/09/20 07:59:09;;;;;;;;;;;;;;;;;;6238846;22;19919;-92
2023/09/20 08:01:35;;;;;;;;;;;;;;;;;;6234978;22;19919;-93
2023/09/20 08:04:06;;;;;;;;;;;;;;;;;;6238614;22;19962;-93
2023/09/20 08:06:33;;;;;;;;;;;;;;;;;;6261880;22;19919;-92
2023/09/20 08:08:59;;;;;;;;;;;;;;;;;;6239824;22;19918;-93
2023/09/20 08:11:25;;;;;;;;;;;;;;;;;;6260818;22;19946;-93
2023/09/20 08:13:51;;;;;;;;;;;;;;;;;;6262739;22;19919;-92
2023/09/20 08:16:17;;;;;;;;;;;;;;;;;;6238090;22;19984;-93
2023/09/20 08:21:29;;;;;;;;;;;;;;;;;;6260904;22;19968;-92
2023/09/20 08:59:52;;;;;;;;;;;;;;;;;;6285721;22;20224;-92
2023/09/20 09:02:19;;;;;;;;;;;;;;;;;;6264466;22;19972;-93
2023/09/20 09:04:44;;;;;;;;;;;;;;;;;;6287319;22;20376;-93
2023/09/20 09:07:11;;;;;;;;;;;;;;;;;;6287739;22;20178;-92
2023/09/20 09:09:37;;;;;;;;;;;;;;;;;;6286481;22;19918;-93
2023/09/20 09:12:03;;;;;;;;;;;;;;;;;;6263135;22;19923;-93
2023/09/20 09:14:29;;;;;;;;;;;;;;;;;;6287985;22;19957;-94
2023/09/20 09:16:55;;;;;;;;;;;;;;;;;;6287642;22;19950;-93
2023/09/20 09:19:21;;;;;;;;;;;;;;;;;;6287338;22;20362;-93
2023/09/20 09:21:47;;;;;;;;;;;;;;;;;;6262468;22;20243;-92
2023/09/20 09:24:13;;;;;;;;;;;;;;;;;;6262313;22;19969;-93
2023/09/20 09:26:39;;;;;;;;;;;;;;;;;;6259799;22;19919;-93
2023/09/20 09:29:05;;;;;;;;;;;;;;;;;;6291236;22;19919;-93
2023/09/20 09:31:31;;;;;;;;;;;;;;;;;;6286985;22;19919;-92
2023/09/20 09:33:57;;;;;;;;;;;;;;;;;;6288966;22;20281;-93
2023/09/20 09:36:23;;;;;;;;;;;;;;;;;;6261138;22;19930;-93
2023/09/20 09:38:49;;;;;;;;;;;;;;;;;;6261827;22;19919;-93
2023/09/20 09:41:15;;;;;;;;;;;;;;;;;;6262435;22;19919;-92
2023/09/20 09:43:41;;;;;;;;;;;;;;;;;;6286740;22;19976;-92
2023/09/20 09:46:08;;;;;;;;;;;;;;;;;;6290670;22;19919;-92
2023/09/20 09:48:34;;;;;;;;;;;;;;;;;;6260258;22;19919;-93
2023/09/20 09:51:01;;;;;;;;;;;;;;;;;;6287662;22;20001;-92
2023/09/20 09:53:27;;;;;;;;;;;;;;;;;;6285428;22;20354;-92
2023/09/20 09:55:53;;;;;;;;;;;;;;;;;;6263896;22;19923;-91
2023/09/20 09:58:20;;;;;;;;;;;;;;;;;;6265576;22;19981;-92
2023/09/20 10:00:46;;;;;;;;;;;;;;;;;;6265876;22;19919;-92
2023/09/20 10:03:12;;;;;;;;;;;;;;;;;;6265010;22;19952;-93
2023/09/20 10:05:38;;;;;;;;;;;;;;;;;;6285801;22;19998;-94
2023/09/20 10:08:05;;;;;;;;;;;;;;;;;;6265579;22;19994;-93
2023/09/20 10:10:31;;;;;;;;;;;;;;;;;;6263141;22;20327;-93
2023/09/20 10:13:00;;;;;;;;;;;;;;;;;;6291476;22;21377;-93
2023/09/20 10:15:26;;;;;;;;;;;;;;;;;;6288284;22;19918;-92
2023/09/20 10:17:54;;;;;;;;;;;;;;;;;;6291174;22;19946;-94
2023/09/20 10:20:20;;;;;;;;;;;;;;;;;;6264682;22;19993;-93
2023/09/20 10:22:46;;;;;;;;;;;;;;;;;;6265802;22;19946;-92
2023/09/20 10:25:12;;;;;;;;;;;;;;;;;;6292050;22;19931;-93
2023/09/20 10:27:40;;;;;;;;;;;;;;;;;;6295623;22;20270;-92
2023/09/20 10:30:09;;;;;;;;;;;;;;;;;;6270916;22;19926;-93
2023/09/20 10:32:35;;;;;;;;;;;;;;;;;;6296192;22;19919;-94
2023/09/20 10:35:01;;;;;;;;;;;;;;;;;;6297747;22;19919;-93
2023/09/20 10:37:27;;;;;;;;;;;;;;;;;;6268216;22;19926;-90
2023/09/20 10:39:53;;;;;;;;;;;;;;;;;;6262439;22;19923;-91
2023/09/20 10:42:20;;;;;;;;;;;;;;;;;;6263951;22;20328;-91
2023/09/20 10:44:46;;;;;;;;;;;;;;;;;;6290030;22;19919;-91
2023/09/20 10:47:12;;;;;;;;;;;;;;;;;;6286540;22;19919;-92
2023/09/20 10:49:40;;;;;;;;;;;;;;;;;;6260961;22;19966;-94
2023/09/20 10:52:06;;;;;;;;;;;;;;;;;;6262660;22;20253;-92
2023/09/20 10:54:36;;;;;;;;;;;;;;;;;;6236596;22;20382;-91
2023/09/20 10:57:07;;;;;;;;;;;;;;;;;;6264564;22;19919;-92
2023/09/20 10:59:34;;;;;;;;;;;;;;;;;;6234017;22;19918;-92
2023/09/20 11:02:00;;;;;;;;;;;;;;;;;;6263071;22;20005;-92
2023/09/20 11:04:26;;;;;;;;;;;;;;;;;;6258218;22;20390;-92
2023/09/20 11:06:52;;;;;;;;;;;;;;;;;;6261464;22;19918;-92
2023/09/20 11:09:20;;;;;;;;;;;;;;;;;;6264122;22;20128;-93
2023/09/20 11:11:46;;;;;;;;;;;;;;;;;;6265012;22;19926;-91
2023/09/20 11:14:15;;;;;;;;;;;;;;;;;;6264584;22;19918;-92
2023/09/20 11:16:44;;;;;;;;;;;;;;;;;;6262758;22;19990;-92
2023/09/20 11:19:11;;;;;;;;;;;;;;;;;;6290909;22;20307;-91
2023/09/20 11:21:37;;;;;;;;;;;;;;;;;;6260840;22;19915;-92
2023/09/20 11:24:03;;;;;;;;;;;;;;;;;;6263540;22;20574;-92
2023/09/20 11:26:29;;;;;;;;;;;;;;;;;;6235356;22;19999;-93
2023/09/20 11:28:56;;;;;;;;;;;;;;;;;;6263714;22;20380;-93
2023/09/20 11:31:22;;;;;;;;;;;;;;;;;;6235057;22;20286;-93
2023/09/20 11:33:47;;;;;;;;;;;;;;;;;;6238278;22;20012;-93
2023/09/20 11:36:14;;;;;;;;;;;;;;;;;;6263200;22;19934;-92
2023/09/20 11:38:40;;;;;;;;;;;;;;;;;;6262310;22;20327;-93
2023/09/20 11:41:09;;;;;;;;;;;;;;;;;;6262678;22;19919;-92
2023/09/20 11:43:35;;;;;;;;;;;;;;;;;;6236320;22;19922;-93
2023/09/20 11:46:01;;;;;;;;;;;;;;;;;;6267246;22;20354;-86
2023/09/20 11:48:27;;;;;;;;;;;;;;;;;;6288761;22;19950;-86
2023/09/20 11:50:56;;;;;;;;;;;;;;;;;;6292767;22;20350;-86
2023/09/20 11:53:34;;;;;;;;;;;;;;;;;;6317634;22;19925;-86
2023/09/20 11:56:06;;;;;;;;;;;;;;;;;;6318024;22;19928;-87
2023/09/20 11:58:36;;;;;;;;;;;;;;;;;;6291563;22;19929;-87
2023/09/20 12:01:05;;;;;;;;;;;;;;;;;;6294999;22;19984;-86
2023/09/20 12:03:40;;;;;;;;;;;;;;;;;;6324676;22;19941;-87
2023/09/20 12:06:10;;;;;;;;;;;;;;;;;;6290129;22;20212;-87
2023/09/20 12:08:38;;;;;;;;;;;;;;;;;;6288052;22;19997;-87
2023/09/20 12:11:04;;;;;;;;;;;;;;;;;;6285646;22;19918;-87
2023/09/20 12:13:31;;;;;;;;;;;;;;;;;;6287927;22;19988;-87
2023/09/20 12:16:02;;;;;;;;;;;;;;;;;;6313592;22;19918;-87
2023/09/20 12:18:31;;;;;;;;;;;;;;;;;;6290260;22;19990;-87
2023/09/20 12:20:57;;;;;;;;;;;;;;;;;;6291701;22;19918;-87
2023/09/20 12:23:35;;;;;;;;;;;;;;;;;;6285436;22;19918;-87
2023/09/20 12:26:24;;;;;;;;;;;;;;;;;;6307994;22;20250;-87
2023/09/20 12:28:53;;;;;;;;;;;;;;;;;;6285242;22;19918;-87
2023/09/20 12:31:23;;;;;;;;;;;;;;;;;;6278723;22;20735;-87
2023/09/20 12:33:53;;;;;;;;;;;;;;;;;;6305286;22;20354;-88
2023/09/20 12:36:33;;;;;;;;;;;;;;;;;;6288201;22;19926;-87
2023/09/20 12:39:02;;;;;;;;;;;;;;;;;;6289021;22;19962;-87
2023/09/20 12:41:28;;;;;;;;;;;;;;;;;;6283960;22;20099;-86
2023/09/20 12:44:05;;;;;;;;;;;;;;;;;;6287714;22;19965;-87
2023/09/20 12:46:37;;;;;;;;;;;;;;;;;;6308086;22;19922;-87
2023/09/20 12:49:16;;;;;;;;;;;;;;;;;;;;;
2023/09/20 12:52:56;;;;;;;;;;;;;;;;;;6245276;22;19926;-88
2023/09/20 13:01:22;;;;;;;;;;;;;;;;;;6298286;22;20051;-88
2023/09/20 13:03:48;;;;;;;;;;;;;;;;;;6282229;22;20105;-88
2023/09/20 13:06:16;;;;;;;;;;;;;;;;;;6310543;22;19918;-88
2023/09/20 13:11:36;;;;;;;;;;;;;;;;;;6308089;22;20011;-87
2023/09/20 13:23:14;;;;;;;;;;;;;;;;;;6156197;23;19942;-87
2023/09/20 13:28:41;;;;;;;;;;;;;;;;;;6108165;23;20365;-88
2023/09/20 13:31:07;;;;;;;;;;;;;;;;;;6199880;22;19924;-87
2023/09/20 13:33:39;;;;;;;;;;;;;;;;;;6247215;22;19920;-87
2023/09/20 13:36:05;;;;;;;;;;;;;;;;;;6244613;22;19961;-87
2023/09/20 13:38:32;;;;;;;;;;;;;;;;;;6239779;22;19923;-87
2023/09/20 13:40:58;;;;;;;;;;;;;;;;;;6216954;22;19926;-88
2023/09/20 13:43:24;;;;;;;;;;;;;;;;;;6218184;22;19980;-88
2023/09/20 13:45:52;;;;;;;;;;;;;;;;;;6218362;22;19923;-88
2023/09/20 13:48:23;;;;;;;;;;;;;;;;;;6244006;22;19923;-89
2023/09/20 13:50:49;;;;;;;;;;;;;;;;;;6219195;22;20535;-88
2023/09/20 13:53:15;;;;;;;;;;;;;;;;;;6222587;22;19919;-87
2023/09/20 13:55:41;;;;;;;;;;;;;;;;;;6282863;22;19918;-88
2023/09/20 13:58:11;;;;;;;;;;;;;;;;;;6281776;22;19945;-87
2023/09/20 14:00:41;;;;;;;;;;;;;;;;;;6279209;22;20853;-88
2023/09/20 14:19:09;;;;;;;;;;;;;;;;;;6213734;22;20637;-87
2023/09/20 14:21:59;;;;;;;;;;;;;;;;;;;;;
2023/09/20 14:24:38;;;;;;;;;;;;;;;;;;6248492;22;19922;-86
2023/09/20 14:27:16;;;;;;;;;;;;;;;;;;6228536;22;19958;-86
2023/09/20 14:29:46;;;;;;;;;;;;;;;;;;6250951;22;19987;-87
2023/09/20 14:35:12;;;;;;;;;;;;;;;;;;6299921;22;20418;-86
2023/09/20 14:37:48;;;;;;;;;;;;;;;;;;6279628;22;20741;-85
2023/09/20 14:40:50;;;;;;;;;;;;;;;;;;6322129;22;19926;-86
2023/09/20 14:55:13;;;;;;;;;;;;;;;;;;6311483;22;19946;-87
2023/09/20 15:03:52;;;;;;;;;;;;;;;;;;6301345;22;19934;-86
2023/09/20 15:06:44;;;;;;;;;;;;;;;;;;6314079;22;19923;-86
2023/09/20 15:15:38;;;;;;;;;;;;;;;;;;;;;
2023/09/20 15:18:36;;;;;;;;;;;;;;;;;;;;;
2023/09/20 15:21:15;;;;;;;;;;;;;;;;;;6193668;23;19931;-85
2023/09/20 15:23:57;;;;;;;;;;;;;;;;;;6195988;23;20004;-86
2023/09/20 15:26:37;;;;;;;;;;;;;;;;;;6193627;23;19926;-86
2023/09/20 15:29:18;;;;;;;;;;;;;;;;;;6194636;23;19920;-85
2023/09/20 15:31:46;;;;;;;;;;;;;;;;;;6192221;23;19935;-85
2023/09/20 15:34:13;;;;;;;;;;;;;;;;;;6196187;23;19997;-86
2023/09/20 15:36:44;;;;;;;;;;;;;;;;;;6238718;22;19941;-85
2023/09/20 15:39:12;;;;;;;;;;;;;;;;;;6255902;22;19944;-85
2023/09/20 15:41:41;;;;;;;;;;;;;;;;;;6258725;22;19933;-87
2023/09/20 15:44:14;;;;;;;;;;;;;;;;;;6262488;22;20068;-86
2023/09/20 15:46:42;;;;;;;;;;;;;;;;;;6285055;22;19934;-86
2023/09/20 15:49:09;;;;;;;;;;;;;;;;;;6262474;22;20364;-86
2023/09/20 15:51:39;;;;;;;;;;;;;;;;;;6282274;22;19922;-86
2023/09/20 15:54:07;;;;;;;;;;;;;;;;;;6283048;22;20441;-87
2023/09/20 15:56:34;;;;;;;;;;;;;;;;;;6282665;22;19976;-87
2023/09/20 15:59:05;;;;;;;;;;;;;;;;;;6282498;22;19922;-88
2023/09/20 16:01:41;;;;;;;;;;;;;;;;;;6258606;22;20441;-89
2023/09/20 16:04:09;;;;;;;;;;;;;;;;;;6284015;22;19923;-88
2023/09/20 16:06:51;;;;;;;;;;;;;;;;;;6254990;22;20032;-87
2023/09/20 16:09:18;;;;;;;;;;;;;;;;;;6257985;22;20001;-88
2023/09/20 16:11:49;;;;;;;;;;;;;;;;;;6254580;22;20334;-88
2023/09/20 16:14:17;;;;;;;;;;;;;;;;;;6255719;22;19918;-89
2023/09/20 16:16:43;;;;;;;;;;;;;;;;;;6277524;22;20145;-86
2023/09/20 16:19:13;;;;;;;;;;;;;;;;;;6254282;22;20461;-87
2023/09/20 16:21:40;;;;;;;;;;;;;;;;;;6252039;22;19919;-88
2023/09/20 16:24:11;;;;;;;;;;;;;;;;;;6255113;22;19953;-86
2023/09/20 16:26:42;;;;;;;;;;;;;;;;;;6251555;22;20587;-90
2023/09/20 16:29:14;;;;;;;;;;;;;;;;;;6276954;22;19950;-86
2023/09/20 16:31:41;;;;;;;;;;;;;;;;;;6250732;22;20441;-86
2023/09/20 16:34:10;;;;;;;;;;;;;;;;;;6284038;22;19922;-86
2023/09/20 16:36:37;;;;;;;;;;;;;;;;;;6251775;22;19922;-86
2023/09/20 16:39:07;;;;;;;;;;;;;;;;;;6281216;22;19919;-86
2023/09/20 16:41:35;;;;;;;;;;;;;;;;;;6280488;22;20391;-86
2023/09/20 16:47:04;;;;;;;;;;;;;;;;;;6287088;22;19938;-86
2023/09/20 16:49:31;;;;;;;;;;;;;;;;;;6282001;22;19961;-86
2023/09/20 16:51:59;;;;;;;;;;;;;;;;;;6284080;22;19918;-86
2023/09/20 16:54:27;;;;;;;;;;;;;;;;;;6253855;22;19923;-86
2023/09/20 16:56:54;;;;;;;;;;;;;;;;;;6256670;22;19948;-86
2023/09/20 16:59:21;;;;;;;;;;;;;;;;;;6254705;22;20355;-86
2023/09/20 17:01:49;;;;;;;;;;;;;;;;;;6258422;22;19930;-87
2023/09/20 17:04:16;;;;;;;;;;;;;;;;;;6256496;22;19923;-87
2023/09/20 17:06:44;;;;;;;;;;;;;;;;;;6253583;22;20326;-87
2023/09/20 17:09:12;;;;;;;;;;;;;;;;;;6256283;22;19930;-87
2023/09/20 17:11:39;;;;;;;;;;;;;;;;;;6281425;22;19918;-86
2023/09/20 17:14:08;;;;;;;;;;;;;;;;;;6285285;22;19972;-87
2023/09/20 17:16:36;;;;;;;;;;;;;;;;;;6254011;22;19918;-86
2023/09/20 17:19:04;;;;;;;;;;;;;;;;;;6258733;22;19918;-87
2023/09/20 17:21:31;;;;;;;;;;;;;;;;;;6287124;22;20030;-87
2023/09/20 17:24:02;;;;;;;;;;;;;;;;;;6285458;22;19933;-87
2023/09/20 17:26:29;;;;;;;;;;;;;;;;;;6284114;22;19919;-87
2023/09/20 17:28:56;;;;;;;;;;;;;;;;;;6286962;22;20651;-87
2023/09/20 17:31:23;;;;;;;;;;;;;;;;;;6259594;22;20399;-87
2023/09/20 17:33:50;;;;;;;;;;;;;;;;;;6287628;22;20340;-87
2023/09/20 17:36:23;;;;;;;;;;;;;;;;;;6285772;22;19973;-87
2023/09/20 17:38:50;;;;;;;;;;;;;;;;;;6286931;22;19919;-87
2023/09/20 17:41:16;;;;;;;;;;;;;;;;;;6283956;22;19926;-86
2023/09/20 17:43:43;;;;;;;;;;;;;;;;;;6258295;22;19926;-87
2023/09/20 17:46:13;;;;;;;;;;;;;;;;;;6262077;22;19926;-87
2023/09/20 17:48:43;;;;;;;;;;;;;;;;;;6284629;22;20357;-86
2023/09/20 17:51:11;;;;;;;;;;;;;;;;;;6259174;22;19925;-86
2023/09/20 17:53:38;;;;;;;;;;;;;;;;;;6283599;22;20370;-87
2023/09/20 17:56:06;;;;;;;;;;;;;;;;;;6284632;22;20003;-87
2023/09/20 17:58:36;;;;;;;;;;;;;;;;;;6283717;22;19919;-87
2023/09/20 18:01:04;;;;;;;;;;;;;;;;;;6261013;22;19929;-87
2023/09/20 18:03:34;;;;;;;;;;;;;;;;;;6284075;22;19961;-87
2023/09/20 18:06:01;;;;;;;;;;;;;;;;;;6261910;22;19923;-87
2023/09/20 18:08:28;;;;;;;;;;;;;;;;;;6259902;22;20316;-87
2023/09/20 18:10:55;;;;;;;;;;;;;;;;;;6286755;22;19919;-87
2023/09/20 18:13:25;;;;;;;;;;;;;;;;;;6284522;22;19997;-87
2023/09/20 18:15:52;;;;;;;;;;;;;;;;;;6285313;22;19919;-86
2023/09/20 18:18:23;;;;;;;;;;;;;;;;;;6286807;22;19919;-86
2023/09/20 18:20:54;;;;;;;;;;;;;;;;;;6286214;22;19933;-87
2023/09/20 18:23:21;;;;;;;;;;;;;;;;;;6259641;22;19923;-86
2023/09/20 18:25:49;;;;;;;;;;;;;;;;;;6260794;22;19965;-86
2023/09/20 18:28:16;;;;;;;;;;;;;;;;;;6287230;22;19919;-87
2023/09/20 18:30:44;;;;;;;;;;;;;;;;;;6285724;22;19930;-87
2023/09/20 18:33:13;;;;;;;;;;;;;;;;;;6284042;22;19927;-86
2023/09/20 18:35:40;;;;;;;;;;;;;;;;;;6286257;22;20048;-87
2023/09/20 18:38:13;;;;;;;;;;;;;;;;;;6286732;22;19926;-86
2023/09/20 18:40:40;;;;;;;;;;;;;;;;;;6259765;22;19957;-86
2023/09/20 18:43:09;;;;;;;;;;;;;;;;;;6259602;22;20414;-87